Time;durP1;ratioP1;P1;durP2;ratioP2;P2;SDS_P1;SDS_P2;PMS_P1;PMS_P2;Temp;Humidity;BMP_temperature;BMP_pressure;BME280_temperature;BME280_humidity;BME280_pressure;Samples;Min_cycle;Max_cycle;Signal;HPM_P1;HPM_P2
2023/03/09 03:21:50;;;;;;;0.80;0.80;;;1.40;99.90;;;;;;5077239;28;20093;-77
2023/03/09 03:24:17;;;;;;;0.80;0.80;;;1.30;99.90;;;;;;5055352;28;20056;-77
2023/03/09 03:26:43;;;;;;;0.80;0.80;;;1.30;99.90;;;;;;5072148;28;20429;-77
2023/03/09 03:29:08;;;;;;;0.70;0.70;;;1.40;99.90;;;;;;5079217;28;20042;-77
2023/03/09 03:31:34;;;;;;;0.75;0.75;;;1.50;99.90;;;;;;5074391;28;20417;-77
2023/03/09 03:34:00;;;;;;;0.80;0.80;;;1.50;99.90;;;;;;5078094;28;20656;-78
2023/03/09 03:36:26;;;;;;;0.80;0.80;;;1.40;99.90;;;;;;5073440;28;20345;-78
2023/03/09 03:38:52;;;;;;;0.80;0.80;;;1.50;99.90;;;;;;5076699;28;20145;-77
2023/03/09 03:41:17;;;;;;;0.80;0.80;;;1.50;99.90;;;;;;5055720;28;20067;-77
2023/03/09 03:43:43;;;;;;;0.80;0.80;;;1.40;99.90;;;;;;5071635;28;20078;-78
2023/03/09 03:46:09;;;;;;;0.80;0.80;;;1.50;99.90;;;;;;5078349;28;20405;-77
2023/03/09 03:48:34;;;;;;;0.80;0.80;;;1.50;99.90;;;;;;5072217;28;20044;-77
2023/03/09 03:51:00;;;;;;;0.70;0.70;;;1.50;99.90;;;;;;5077358;28;20051;-77
2023/03/09 03:53:26;;;;;;;0.80;0.80;;;1.50;99.90;;;;;;5076375;28;20044;-77
2023/03/09 03:55:51;;;;;;;0.75;0.75;;;1.50;99.90;;;;;;5074604;28;20111;-78
2023/03/09 03:58:17;;;;;;;0.80;0.80;;;1.60;99.90;;;;;;5070054;28;20101;-77
2023/03/09 04:00:43;;;;;;;0.80;0.80;;;1.50;99.90;;;;;;5077394;28;20596;-77
2023/03/09 04:03:08;;;;;;;0.80;0.80;;;1.50;99.90;;;;;;5079428;28;20425;-77
2023/03/09 04:05:34;;;;;;;0.80;0.80;;;1.40;99.90;;;;;;5077225;28;20392;-77
2023/03/09 04:08:00;;;;;;;0.80;0.80;;;1.50;99.90;;;;;;5075586;28;20052;-77
2023/03/09 04:10:26;;;;;;;0.80;0.80;;;1.70;99.90;;;;;;5075319;28;22045;-77
2023/03/09 04:12:52;;;;;;;0.70;0.70;;;1.60;99.90;;;;;;5079758;28;20048;-77
2023/03/09 04:15:18;;;;;;;0.80;0.80;;;1.50;99.90;;;;;;5058548;28;20036;-77
2023/03/09 04:17:43;;;;;;;0.80;0.80;;;1.50;99.90;;;;;;5056376;28;21744;-77
2023/03/09 04:20:10;;;;;;;0.70;0.70;;;1.50;99.90;;;;;;5076162;28;20069;-77
2023/03/09 04:22:36;;;;;;;0.80;0.80;;;1.60;99.90;;;;;;5053132;28;20082;-77
2023/03/09 04:25:01;;;;;;;0.80;0.80;;;1.50;99.90;;;;;;5077002;28;20072;-77
2023/03/09 04:27:27;;;;;;;0.70;0.70;;;1.70;99.90;;;;;;5074237;28;20258;-77
2023/03/09 04:29:53;;;;;;;0.70;0.70;;;1.60;99.90;;;;;;5060927;28;20389;-77
2023/03/09 04:32:18;;;;;;;0.80;0.80;;;1.60;99.90;;;;;;5058653;28;20059;-77
2023/03/09 04:34:44;;;;;;;0.70;0.70;;;1.70;99.90;;;;;;5058419;28;20043;-77
2023/03/09 04:37:11;;;;;;;0.80;0.80;;;1.60;99.90;;;;;;5055778;28;20048;-77
2023/03/09 04:39:37;;;;;;;0.70;0.70;;;1.50;99.90;;;;;;5076918;28;20087;-77
2023/03/09 04:42:02;;;;;;;0.80;0.80;;;1.60;99.90;;;;;;5077336;28;20036;-78
2023/03/09 04:44:28;;;;;;;0.80;0.80;;;1.70;99.90;;;;;;5056966;28;20041;-77
2023/03/09 04:46:54;;;;;;;0.80;0.80;;;1.50;99.90;;;;;;5073112;28;20082;-77
2023/03/09 04:49:20;;;;;;;2.65;2.55;;;1.60;99.90;;;;;;5074143;28;20829;-77
2023/03/09 04:51:46;;;;;;;0.70;0.70;;;1.50;99.90;;;;;;5060859;28;20043;-78
2023/03/09 04:54:11;;;;;;;0.70;0.70;;;1.60;99.90;;;;;;5057733;28;20466;-78
2023/03/09 04:56:37;;;;;;;0.70;0.70;;;1.50;99.90;;;;;;5051554;28;20095;-78
2023/03/09 04:59:03;;;;;;;0.80;0.80;;;1.60;99.90;;;;;;5076237;28;20825;-78
2023/03/09 05:01:28;;;;;;;0.75;0.75;;;1.60;99.90;;;;;;5077391;28;20051;-78
2023/03/09 05:03:54;;;;;;;0.80;0.80;;;1.60;99.90;;;;;;5076913;28;20036;-78
2023/03/09 05:06:20;;;;;;;0.80;0.80;;;1.40;99.90;;;;;;5077277;28;20101;-78
2023/03/09 05:08:46;;;;;;;0.70;0.70;;;1.40;99.90;;;;;;5066344;28;20048;-78
2023/03/09 05:11:12;;;;;;;0.80;0.80;;;1.40;99.90;;;;;;5075109;28;20110;-78
2023/03/09 05:13:38;;;;;;;0.80;0.80;;;1.40;99.90;;;;;;5058118;28;20051;-78
2023/03/09 05:16:07;;;;;;;0.70;0.70;;;1.50;99.90;;;;;;5057775;28;20713;-78
2023/03/09 05:18:36;;;;;;;0.80;0.80;;;1.50;99.90;;;;;;5050558;28;20125;-77
2023/03/09 05:21:07;;;;;;;0.70;0.70;;;1.30;99.90;;;;;;5073450;28;20193;-78
2023/03/09 05:23:33;;;;;;;0.80;0.80;;;1.40;99.90;;;;;;5038221;28;20040;-78
2023/03/09 05:26:02;;;;;;;0.80;0.80;;;1.20;99.90;;;;;;5055931;28;20044;-78
2023/03/09 05:28:30;;;;;;;0.80;0.80;;;1.20;99.90;;;;;;5055114;28;20056;-78
2023/03/09 05:30:56;;;;;;;0.80;0.80;;;1.30;99.90;;;;;;5073169;28;20044;-78
2023/03/09 05:33:22;;;;;;;0.80;0.80;;;1.40;99.90;;;;;;5055610;28;20064;-78
2023/03/09 05:35:49;;;;;;;0.80;0.80;;;1.30;99.90;;;;;;5054955;28;20505;-78
2023/03/09 05:38:14;;;;;;;0.80;0.80;;;1.40;99.90;;;;;;5054057;28;20052;-78
2023/03/09 05:40:40;;;;;;;0.80;0.80;;;1.40;99.90;;;;;;5075680;28;20040;-78
2023/03/09 05:43:06;;;;;;;0.80;0.80;;;1.20;99.90;;;;;;5057627;28;20048;-78
2023/03/09 05:45:32;;;;;;;0.80;0.80;;;1.30;99.90;;;;;;5081207;28;20199;-78
2023/03/09 05:47:57;;;;;;;0.80;0.80;;;1.30;99.90;;;;;;5072726;28;20048;-78
2023/03/09 05:50:23;;;;;;;0.80;0.80;;;1.30;99.90;;;;;;5074812;28;20555;-78
2023/03/09 05:52:49;;;;;;;0.80;0.80;;;1.30;99.90;;;;;;5061095;28;20052;-78
2023/03/09 05:55:14;;;;;;;0.80;0.80;;;1.30;99.90;;;;;;5076946;28;20618;-78
2023/03/09 05:57:55;;;;;;;0.80;0.80;;;1.40;99.90;;;;;;5075621;28;20507;-77
2023/03/09 06:00:21;;;;;;;0.80;0.80;;;1.30;99.90;;;;;;5042442;28;20131;-78
2023/03/09 06:02:47;;;;;;;0.70;0.70;;;1.30;99.90;;;;;;5047434;28;20088;-78
2023/03/09 06:05:12;;;;;;;0.80;0.80;;;1.30;99.90;;;;;;5066940;28;20183;-78
2023/03/09 06:07:38;;;;;;;0.80;0.80;;;1.40;99.90;;;;;;5054313;28;20131;-78
2023/03/09 06:10:04;;;;;;;0.80;0.80;;;1.50;99.90;;;;;;5055905;28;20059;-78
2023/03/09 06:12:30;;;;;;;0.70;0.70;;;1.30;99.90;;;;;;5074829;28;20621;-78
2023/03/09 06:14:56;;;;;;;0.80;0.80;;;1.50;99.90;;;;;;5075513;28;20055;-78
2023/03/09 06:17:21;;;;;;;0.70;0.70;;;1.50;99.90;;;;;;5069761;28;20051;-78
2023/03/09 06:19:47;;;;;;;0.80;0.80;;;1.60;99.90;;;;;;5053228;28;20495;-78
2023/03/09 06:22:13;;;;;;;0.70;0.70;;;1.40;99.90;;;;;;5059125;28;20502;-78
2023/03/09 06:24:38;;;;;;;0.80;0.80;;;1.30;99.90;;;;;;5059270;28;20630;-78
2023/03/09 06:27:10;;;;;;;0.80;0.80;;;1.50;99.90;;;;;;5055556;28;20561;-78
2023/03/09 06:29:36;;;;;;;0.80;0.80;;;1.30;99.90;;;;;;5036623;28;20477;-78
2023/03/09 06:32:01;;;;;;;0.70;0.70;;;1.40;99.90;;;;;;5046212;28;20040;-78
2023/03/09 06:34:31;;;;;;;0.80;0.80;;;1.50;99.90;;;;;;5041401;28;20756;-77
2023/03/09 06:36:57;;;;;;;0.70;0.70;;;1.40;99.90;;;;;;5041798;28;20635;-78
2023/03/09 06:39:22;;;;;;;0.73;0.73;;;1.60;99.90;;;;;;5042792;28;20048;-78
2023/03/09 06:41:49;;;;;;;0.80;0.80;;;1.50;99.90;;;;;;5046767;28;20063;-77
2023/03/09 06:44:15;;;;;;;0.80;0.80;;;1.50;99.90;;;;;;5061198;28;20059;-78
2023/03/09 06:46:41;;;;;;;0.73;0.73;;;1.40;99.90;;;;;;5062612;28;20048;-78
2023/03/09 06:49:06;;;;;;;0.80;0.80;;;1.50;99.90;;;;;;5058905;28;20044;-78
2023/03/09 06:51:32;;;;;;;0.77;0.77;;;1.50;99.90;;;;;;5046126;28;20039;-78
2023/03/09 06:53:58;;;;;;;0.70;0.70;;;1.50;99.90;;;;;;5064638;28;20111;-78
2023/03/09 06:56:24;;;;;;;0.70;0.70;;;1.70;99.90;;;;;;5064170;28;20947;-78
2023/03/09 06:58:52;;;;;;;0.80;0.80;;;1.70;99.90;;;;;;5043259;28;20812;-78
2023/03/09 07:01:18;;;;;;;0.80;0.80;;;1.50;99.90;;;;;;5044134;28;20056;-78
2023/03/09 07:03:44;;;;;;;0.80;0.80;;;1.80;99.90;;;;;;5064751;28;20040;-78
2023/03/09 07:06:10;;;;;;;0.80;0.80;;;1.60;99.90;;;;;;5041237;28;20611;-78
2023/03/09 07:08:35;;;;;;;0.80;0.80;;;1.80;99.90;;;;;;5063728;28;20085;-78
2023/03/09 07:11:01;;;;;;;0.80;0.80;;;1.90;99.90;;;;;;5073367;28;20056;-77
2023/03/09 07:13:27;;;;;;;0.80;0.80;;;1.80;99.90;;;;;;5073181;28;20151;-77
2023/03/09 07:15:52;;;;;;;0.80;0.80;;;1.70;99.90;;;;;;5057423;28;20047;-77
2023/03/09 07:18:18;;;;;;;0.70;0.70;;;1.80;99.90;;;;;;5071343;28;20060;-77
2023/03/09 07:20:43;;;;;;;0.80;0.80;;;1.90;99.90;;;;;;5076906;28;20102;-77
2023/03/09 07:23:11;;;;;;;0.77;0.77;;;1.90;99.90;;;;;;5076490;28;20047;-78
2023/03/09 07:25:38;;;;;;;0.80;0.80;;;1.90;99.90;;;;;;5078145;28;20039;-77
2023/03/09 07:28:05;;;;;;;0.80;0.80;;;2.00;99.90;;;;;;5051907;28;20090;-78
2023/03/09 07:30:32;;;;;;;0.70;0.70;;;1.90;99.90;;;;;;5058130;28;20056;-77
2023/03/09 07:32:59;;;;;;;0.80;0.80;;;2.00;99.90;;;;;;5075763;28;20048;-77
2023/03/09 07:35:25;;;;;;;0.80;0.80;;;2.00;99.90;;;;;;5073623;28;20271;-77
2023/03/09 07:38:44;;;;;;;0.80;0.80;;;2.10;99.90;;;;;;5077871;28;20187;-77
2023/03/09 07:41:10;;;;;;;0.80;0.80;;;2.00;99.90;;;;;;5048203;28;20056;-78
2023/03/09 07:43:43;;;;;;;0.73;0.73;;;2.10;99.90;;;;;;5062171;28;20036;-78
2023/03/09 07:46:16;;;;;;;0.80;0.80;;;2.20;99.90;;;;;;5057763;28;20059;-77
2023/03/09 07:48:44;;;;;;;0.80;0.80;;;2.30;99.90;;;;;;5054212;28;20051;-78
2023/03/09 07:51:11;;;;;;;0.80;0.80;;;2.10;99.90;;;;;;5078595;28;20185;-78
2023/03/09 07:53:39;;;;;;;0.70;0.70;;;2.30;99.90;;;;;;5075361;28;20051;-78
2023/03/09 07:56:06;;;;;;;0.80;0.80;;;2.20;99.90;;;;;;5075365;28;20153;-78
2023/03/09 07:58:33;;;;;;;0.70;0.70;;;2.30;99.90;;;;;;5077195;28;20124;-78
2023/03/09 08:01:00;;;;;;;0.70;0.70;;;2.30;99.90;;;;;;5054343;28;20074;-78
2023/03/09 08:03:27;;;;;;;0.80;0.80;;;2.30;99.90;;;;;;5057967;28;20056;-78
2023/03/09 08:05:55;;;;;;;1.00;1.00;;;2.20;99.90;;;;;;5058481;28;20056;-78
2023/03/09 08:08:27;;;;;;;0.70;0.70;;;2.30;99.90;;;;;;5057644;28;20052;-78
2023/03/09 08:10:54;;;;;;;0.80;0.80;;;2.40;99.90;;;;;;5068480;28;20672;-78
2023/03/09 08:13:21;;;;;;;0.70;0.70;;;2.30;99.90;;;;;;5057734;28;20386;-77
2023/03/09 08:15:48;;;;;;;0.70;0.70;;;2.40;99.90;;;;;;5047190;28;20051;-78
2023/03/09 08:18:14;;;;;;;0.70;0.70;;;2.40;99.90;;;;;;5075885;28;20692;-78
2023/03/09 08:20:40;;;;;;;0.80;0.80;;;2.40;99.90;;;;;;5052004;28;20067;-78
2023/03/09 08:23:07;;;;;;;0.80;0.80;;;2.50;99.90;;;;;;5074235;28;20074;-78
2023/03/09 08:25:33;;;;;;;0.70;0.70;;;2.60;99.90;;;;;;5074455;28;20047;-78
2023/03/09 08:27:59;;;;;;;0.73;0.73;;;2.70;99.90;;;;;;5071967;28;20052;-78
2023/03/09 08:30:25;;;;;;;0.80;0.80;;;2.70;99.90;;;;;;5054242;28;20466;-78
2023/03/09 08:32:51;;;;;;;0.80;0.80;;;2.60;99.90;;;;;;5075047;28;20134;-78
2023/03/09 08:35:19;;;;;;;0.70;0.70;;;2.60;99.90;;;;;;5074981;28;20105;-78
2023/03/09 08:37:45;;;;;;;0.73;0.73;;;2.70;99.90;;;;;;5053584;28;20537;-78
2023/03/09 08:40:11;;;;;;;0.70;0.70;;;2.90;99.90;;;;;;5064163;28;20052;-78
2023/03/09 08:42:37;;;;;;;0.70;0.70;;;2.70;99.90;;;;;;5071781;28;20052;-78
2023/03/09 08:45:04;;;;;;;0.77;0.77;;;2.90;99.90;;;;;;5056662;28;20063;-78
2023/03/09 08:47:30;;;;;;;0.70;0.70;;;2.70;99.90;;;;;;5073704;28;20052;-77
2023/03/09 08:49:56;;;;;;;0.80;0.80;;;2.70;99.90;;;;;;5062395;28;20048;-78
2023/03/09 08:52:22;;;;;;;0.70;0.70;;;2.80;99.90;;;;;;5053232;28;20263;-78
2023/03/09 08:54:49;;;;;;;0.77;0.77;;;3.00;99.90;;;;;;5052367;28;20052;-78
2023/03/09 08:57:15;;;;;;;0.70;0.70;;;2.90;99.90;;;;;;5071065;28;20505;-78
2023/03/09 08:59:40;;;;;;;0.70;0.70;;;2.90;99.90;;;;;;5051036;28;20103;-78
2023/03/09 09:02:06;;;;;;;0.75;0.75;;;2.90;99.90;;;;;;5072567;28;20078;-78
2023/03/09 09:04:33;;;;;;;0.80;0.80;;;3.00;99.90;;;;;;5069114;28;20082;-78
2023/03/09 09:06:59;;;;;;;0.70;0.70;;;3.10;99.90;;;;;;5047040;28;20060;-78
2023/03/09 09:09:24;;;;;;;0.73;0.73;;;3.10;99.90;;;;;;5063443;28;20036;-78
2023/03/09 09:11:50;;;;;;;0.70;0.70;;;3.00;99.90;;;;;;5059473;28;20055;-78
2023/03/09 09:14:16;;;;;;;0.70;0.70;;;3.00;99.90;;;;;;5074371;28;20040;-78
2023/03/09 09:16:41;;;;;;;0.70;0.70;;;3.00;99.90;;;;;;5075925;28;20047;-78
2023/03/09 09:19:07;;;;;;;0.70;0.70;;;3.00;99.90;;;;;;5074193;28;20047;-78
2023/03/09 09:21:33;;;;;;;0.70;0.70;;;2.90;99.90;;;;;;5078072;28;20048;-78
2023/03/09 09:23:59;;;;;;;0.70;0.70;;;3.00;99.90;;;;;;5059654;28;20162;-79
2023/03/09 09:26:24;;;;;;;0.70;0.70;;;3.00;99.90;;;;;;5076621;28;20397;-78
2023/03/09 09:28:50;;;;;;;0.80;0.80;;;3.00;99.90;;;;;;5072677;28;20040;-78
2023/03/09 09:31:19;;;;;;;0.70;0.70;;;3.10;99.90;;;;;;5078725;28;20048;-78
2023/03/09 09:33:45;;;;;;;0.70;0.70;;;3.10;99.90;;;;;;5060488;28;20047;-77
2023/03/09 09:36:14;;;;;;;0.70;0.70;;;3.30;99.90;;;;;;5055715;28;20028;-77
2023/03/09 09:38:41;;;;;;;0.70;0.70;;;3.30;99.90;;;;;;5072528;28;20127;-77
2023/03/09 09:41:27;;;;;;;0.80;0.80;;;3.30;99.90;;;;;;5077586;28;20152;-78
2023/03/09 09:43:58;;;;;;;0.70;0.70;;;3.40;99.90;;;;;;5074985;28;20055;-77
2023/03/09 09:46:25;;;;;;;0.70;0.70;;;3.30;99.90;;;;;;5075721;28;20040;-77
2023/03/09 09:48:51;;;;;;;0.70;0.70;;;3.20;99.90;;;;;;5070338;28;20127;-78
2023/03/09 09:51:35;;;;;;;0.70;0.70;;;3.20;99.90;;;;;;5076690;28;20382;-78
2023/03/09 09:54:10;;;;;;;;;;;3.30;99.90;;;;;;5053065;28;20048;-77
2023/03/09 09:57:03;;;;;;;0.70;0.70;;;3.30;99.90;;;;;;5076707;28;19924;-78
2023/03/09 09:59:58;;;;;;;0.80;0.80;;;3.30;99.90;;;;;;5045952;28;20127;-78
2023/03/09 10:02:39;;;;;;;0.70;0.70;;;3.20;99.90;;;;;;5072620;28;20476;-77
2023/03/09 10:05:16;;;;;;;0.70;0.70;;;3.50;99.90;;;;;;5059567;28;20556;-77
2023/03/09 10:07:42;;;;;;;0.70;0.70;;;3.50;99.90;;;;;;5057416;28;20101;-77
2023/03/09 10:10:20;;;;;;;0.70;0.70;;;3.50;99.90;;;;;;5071291;28;20039;-77
2023/03/09 10:12:46;;;;;;;0.70;0.70;;;3.40;99.90;;;;;;5058809;28;20052;-77
2023/03/09 10:15:14;;;;;;;0.80;0.80;;;3.30;99.90;;;;;;5061467;28;20036;-77
2023/03/09 10:17:45;;;;;;;0.70;0.70;;;3.20;99.90;;;;;;5058517;28;20059;-78
2023/03/09 10:20:14;;;;;;;0.70;0.70;;;3.40;99.90;;;;;;5040670;28;20196;-78
2023/03/09 10:22:44;;;;;;;0.70;0.70;;;3.40;99.90;;;;;;5074299;28;20524;-78
2023/03/09 10:25:12;;;;;;;0.70;0.70;;;3.60;99.90;;;;;;5074373;28;20533;-78
2023/03/09 10:27:45;;;;;;;0.70;0.70;;;3.50;99.90;;;;;;5042212;28;20127;-78
2023/03/09 10:30:33;;;;;;;0.70;0.70;;;3.20;99.90;;;;;;5070960;28;20312;-77
2023/03/09 10:33:08;;;;;;;0.70;0.70;;;3.30;99.90;;;;;;5071634;28;20045;-78
2023/03/09 10:35:45;;;;;;;0.70;0.70;;;3.60;99.90;;;;;;5059255;28;20115;-78
2023/03/09 10:38:19;;;;;;;0.70;0.70;;;3.50;99.90;;;;;;5076078;28;20833;-77
2023/03/09 10:40:56;;;;;;;0.70;0.70;;;3.70;99.90;;;;;;5054671;28;20121;-77
2023/03/09 10:43:30;;;;;;;0.80;0.80;;;3.60;99.90;;;;;;5077114;28;20048;-78
2023/03/09 10:46:07;;;;;;;0.70;0.70;;;3.50;99.90;;;;;;5030127;28;20054;-77
2023/03/09 10:48:33;;;;;;;0.70;0.70;;;3.40;99.90;;;;;;5027793;28;20079;-78
2023/03/09 10:51:01;;;;;;;0.70;0.70;;;3.40;99.90;;;;;;5065857;28;20132;-77
2023/03/09 10:53:48;;;;;;;0.70;0.70;;;3.40;99.90;;;;;;5077738;28;20040;-78
2023/03/09 10:56:30;;;;;;;0.70;0.70;;;3.50;99.90;;;;;;5056365;28;20141;-77
2023/03/09 10:59:18;;;;;;;0.70;0.70;;;3.60;99.90;;;;;;5074270;28;20051;-77
2023/03/09 11:01:49;;;;;;;0.70;0.70;;;3.60;99.90;;;;;;5054707;28;20055;-77
2023/03/09 11:04:36;;;;;;;0.70;0.70;;;3.80;99.90;;;;;;5078540;28;20075;-77
2023/03/09 11:07:17;;;;;;;0.70;0.70;;;4.20;99.90;;;;;;5075233;28;20638;-77
2023/03/09 11:09:42;;;;;;;0.70;0.70;;;4.10;99.90;;;;;;5055722;28;20079;-77
2023/03/09 11:12:08;;;;;;;0.70;0.70;;;3.80;99.90;;;;;;5077849;28;20131;-77
2023/03/09 11:14:43;;;;;;;0.70;0.70;;;3.80;99.90;;;;;;5077197;28;20735;-77
2023/03/09 11:17:24;;;;;;;0.70;0.70;;;3.90;99.90;;;;;;5076909;28;20044;-77
2023/03/09 11:20:09;;;;;;;0.70;0.70;;;4.00;99.90;;;;;;5074070;28;20039;-77
2023/03/09 11:22:38;;;;;;;0.68;0.68;;;3.70;99.90;;;;;;5057326;28;20140;-77
2023/03/09 11:25:08;;;;;;;0.70;0.70;;;3.60;99.90;;;;;;5076135;28;20649;-78
2023/03/09 11:27:36;;;;;;;0.70;0.70;;;3.90;99.90;;;;;;5059203;28;20063;-78
2023/03/09 11:30:15;;;;;;;0.60;0.60;;;4.00;99.90;;;;;;5053670;28;20083;-77
2023/03/09 11:32:41;;;;;;;0.70;0.70;;;3.90;99.90;;;;;;5075101;28;20180;-77
2023/03/09 11:35:15;;;;;;;0.65;0.65;;;4.10;99.90;;;;;;5058692;28;20530;-78
2023/03/09 11:37:44;;;;;;;0.60;0.60;;;3.70;99.90;;;;;;5058253;28;20048;-78
2023/03/09 11:40:10;;;;;;;0.70;0.70;;;3.80;99.90;;;;;;5050633;28;20079;-78
2023/03/09 11:42:45;;;;;;;0.70;0.70;;;3.80;99.90;;;;;;5078021;28;20032;-77
2023/03/09 11:45:21;;;;;;;0.70;0.70;;;3.80;99.90;;;;;;5059150;28;20048;-77
2023/03/09 11:47:55;;;;;;;0.70;0.70;;;3.90;99.90;;;;;;5075760;28;20129;-77
2023/03/09 11:50:36;;;;;;;0.70;0.70;;;3.90;99.90;;;;;;5038844;28;20052;-78
2023/03/09 11:53:09;;;;;;;0.70;0.70;;;3.80;99.90;;;;;;5060837;28;21794;-77
2023/03/09 11:55:43;;;;;;;0.70;0.70;;;3.90;99.90;;;;;;5054966;28;20093;-77
2023/03/09 11:58:14;;;;;;;0.80;0.80;;;3.80;99.90;;;;;;5070226;28;20056;-77
2023/03/09 12:00:46;;;;;;;0.70;0.70;;;3.90;99.90;;;;;;5066128;28;20054;-78
2023/03/09 12:03:15;;;;;;;0.70;0.70;;;4.00;99.90;;;;;;5054445;28;20076;-78
2023/03/09 12:05:51;;;;;;;0.70;0.70;;;4.10;99.90;;;;;;5070447;28;20120;-77
2023/03/09 12:08:28;;;;;;;0.70;0.70;;;3.90;99.90;;;;;;5074826;28;20759;-77
2023/03/09 12:11:04;;;;;;;0.70;0.70;;;3.80;99.90;;;;;;5073899;28;20055;-78
2023/03/09 12:13:53;;;;;;;0.70;0.70;;;3.90;99.90;;;;;;5077830;28;20043;-78
2023/03/09 12:16:26;;;;;;;0.70;0.70;;;4.00;99.90;;;;;;5074791;28;20702;-77
2023/03/09 12:19:13;;;;;;;0.70;0.70;;;3.90;99.90;;;;;;5056931;28;20076;-78
2023/03/09 12:21:42;;;;;;;0.70;0.70;;;3.80;99.90;;;;;;5078083;28;20067;-78
2023/03/09 12:24:22;;;;;;;0.70;0.70;;;3.90;99.90;;;;;;5077721;28;20063;-78
2023/03/09 12:27:16;;;;;;;0.70;0.70;;;3.90;99.90;;;;;;5057909;28;20101;-77
2023/03/09 12:29:43;;;;;;;0.70;0.70;;;4.10;99.90;;;;;;5072475;28;20039;-78
2023/03/09 12:32:23;;;;;;;0.70;0.70;;;4.00;99.90;;;;;;5076215;28;20043;-77
2023/03/09 12:34:54;;;;;;;0.60;0.60;;;4.10;99.90;;;;;;5075302;28;20055;-77
2023/03/09 12:37:35;;;;;;;0.70;0.70;;;4.10;99.90;;;;;;5055313;28;20051;-78
2023/03/09 12:40:17;;;;;;;0.70;0.70;;;4.20;99.90;;;;;;5054804;28;20134;-77
2023/03/09 12:42:47;;;;;;;0.70;0.70;;;4.10;99.90;;;;;;5070338;28;20135;-77
2023/03/09 12:45:19;;;;;;;0.70;0.70;;;4.20;99.90;;;;;;5074534;28;20498;-78
2023/03/09 12:47:46;;;;;;;0.70;0.70;;;4.40;99.90;;;;;;5057342;28;20545;-78
2023/03/09 12:50:48;;;;;;;0.70;0.70;;;4.50;99.90;;;;;;5054338;28;20498;-78
2023/03/09 12:53:17;;;;;;;0.70;0.70;;;4.60;99.90;;;;;;5073911;28;20508;-78
2023/03/09 12:55:50;;;;;;;0.65;0.65;;;4.60;99.90;;;;;;5056879;28;20040;-77
2023/03/09 12:58:21;;;;;;;0.60;0.60;;;4.80;99.90;;;;;;5074160;28;20520;-78
2023/03/09 13:01:28;;;;;;;0.70;0.70;;;4.60;99.90;;;;;;5053172;28;20059;-77
2023/03/09 13:04:20;;;;;;;0.70;0.70;;;4.60;99.90;;;;;;5062055;28;20527;-78
2023/03/09 13:07:00;;;;;;;0.70;0.70;;;4.50;99.90;;;;;;5061043;28;20171;-78
2023/03/09 13:09:36;;;;;;;0.70;0.70;;;4.20;99.90;;;;;;5040663;28;20832;-78
2023/03/09 13:12:15;;;;;;;0.70;0.70;;;4.10;99.90;;;;;;5055323;28;20055;-78
2023/03/09 13:14:41;;;;;;;0.70;0.70;;;4.20;99.90;;;;;;5048097;28;20040;-77
2023/03/09 13:17:34;;;;;;;0.70;0.70;;;4.30;99.90;;;;;;5036509;28;20055;-77
2023/03/09 13:20:18;;;;;;;0.70;0.70;;;4.20;99.90;;;;;;5049387;28;20058;-78
2023/03/09 13:22:44;;;;;;;0.80;0.80;;;4.20;99.90;;;;;;5052683;28;20090;-78
2023/03/09 13:25:28;;;;;;;0.70;0.70;;;4.20;99.90;;;;;;5037465;28;20055;-77
2023/03/09 13:28:02;;;;;;;0.73;0.73;;;4.40;99.90;;;;;;5036164;28;20051;-78
2023/03/09 13:30:28;;;;;;;0.70;0.70;;;4.30;99.90;;;;;;5033837;28;20626;-78
2023/03/09 13:32:56;;;;;;;0.70;0.70;;;4.30;99.90;;;;;;5031385;28;20109;-78
2023/03/09 13:35:28;;;;;;;0.70;0.70;;;4.30;99.90;;;;;;5053617;28;20131;-77
2023/03/09 13:37:56;;;;;;;0.70;0.70;;;4.10;99.90;;;;;;5049972;28;20045;-78
2023/03/09 13:40:27;;;;;;;0.70;0.70;;;4.10;99.90;;;;;;5040395;28;20052;-76
2023/03/09 13:42:55;;;;;;;0.70;0.70;;;4.20;99.90;;;;;;5054093;28;20679;-77
2023/03/09 13:45:23;;;;;;;0.70;0.70;;;4.00;99.90;;;;;;5053466;28;20525;-77
2023/03/09 13:47:54;;;;;;;0.60;0.60;;;3.90;99.90;;;;;;5069657;28;20051;-77
2023/03/09 13:50:21;;;;;;;0.65;0.65;;;4.00;99.90;;;;;;5064392;28;20510;-77
2023/03/09 13:52:59;;;;;;;0.70;0.70;;;4.00;99.90;;;;;;5052198;28;20053;-77
2023/03/09 13:55:27;;;;;;;0.70;0.70;;;4.00;99.90;;;;;;5049376;28;20036;-77
2023/03/09 13:57:53;;;;;;;0.70;0.70;;;3.80;99.90;;;;;;5045129;28;20056;-77
2023/03/09 14:00:26;;;;;;;0.70;0.70;;;3.80;99.90;;;;;;5063678;28;20051;-77
2023/03/09 14:02:55;;;;;;;0.70;0.70;;;3.80;99.90;;;;;;5035169;28;20056;-77
2023/03/09 14:05:23;;;;;;;0.70;0.70;;;3.90;99.90;;;;;;5057506;28;20048;-77
2023/03/09 14:07:55;;;;;;;0.70;0.70;;;3.90;99.90;;;;;;5058272;28;20095;-77
2023/03/09 14:10:27;;;;;;;0.70;0.70;;;3.80;99.90;;;;;;5051551;28;20105;-77
2023/03/09 14:13:06;;;;;;;0.70;0.70;;;4.10;99.90;;;;;;5058064;28;20048;-77
2023/03/09 14:15:33;;;;;;;0.70;0.70;;;4.10;99.90;;;;;;5076334;28;20048;-77
2023/03/09 14:18:00;;;;;;;0.70;0.70;;;4.10;99.90;;;;;;5075514;28;20060;-77
2023/03/09 14:20:36;;;;;;;0.70;0.70;;;4.00;99.90;;;;;;5070447;28;20035;-77
2023/03/09 14:23:41;;;;;;;0.70;0.70;;;3.80;99.90;;;;;;5071668;28;20044;-77
2023/03/09 14:26:08;;;;;;;0.70;0.70;;;3.70;99.90;;;;;;5021971;28;20084;-77
2023/03/09 14:28:56;;;;;;;0.70;0.70;;;3.60;99.90;;;;;;5072956;28;20048;-78
2023/03/09 14:31:23;;;;;;;0.70;0.70;;;3.60;99.90;;;;;;5063047;28;20048;-77
2023/03/09 14:34:14;;;;;;;0.70;0.70;;;3.60;99.90;;;;;;5043397;28;20459;-77
2023/03/09 14:36:56;;;;;;;0.70;0.70;;;3.70;99.90;;;;;;5040291;28;20046;-77
2023/03/09 14:39:41;;;;;;;0.70;0.70;;;3.70;99.90;;;;;;5040862;28;20044;-77
2023/03/09 14:42:07;;;;;;;0.70;0.70;;;3.70;99.90;;;;;;5043290;28;20062;-77
2023/03/09 14:44:56;;;;;;;0.70;0.70;;;3.60;99.90;;;;;;5044358;28;20677;-77
2023/03/09 14:47:22;;;;;;;0.70;0.70;;;3.50;99.90;;;;;;5036348;28;20040;-77
2023/03/09 14:49:49;;;;;;;0.70;0.70;;;3.40;99.90;;;;;;5058533;28;20162;-77
2023/03/09 14:52:16;;;;;;;0.70;0.70;;;3.30;99.90;;;;;;5052092;28;20048;-77
2023/03/09 14:54:42;;;;;;;0.70;0.70;;;3.40;99.90;;;;;;5060954;28;20044;-77
2023/03/09 14:57:16;;;;;;;0.70;0.70;;;3.40;99.90;;;;;;5060013;28;20036;-77
2023/03/09 14:59:42;;;;;;;0.70;0.70;;;3.40;99.90;;;;;;5055056;28;20386;-77
2023/03/09 15:02:11;;;;;;;0.70;0.70;;;3.30;99.90;;;;;;5063371;28;20098;-78
2023/03/09 15:04:38;;;;;;;0.80;0.80;;;3.20;99.90;;;;;;5042978;28;20043;-77
2023/03/09 15:07:04;;;;;;;0.70;0.70;;;3.40;99.90;;;;;;5065571;28;20052;-78
2023/03/09 15:09:33;;;;;;;0.70;0.70;;;3.10;99.90;;;;;;5050993;28;20105;-77
2023/03/09 15:12:02;;;;;;;0.70;0.70;;;3.20;99.90;;;;;;5052518;28;20056;-78
2023/03/09 15:14:37;;;;;;;0.70;0.70;;;3.40;99.90;;;;;;5069921;28;20553;-77
2023/03/09 15:17:04;;;;;;;0.80;0.80;;;3.30;99.90;;;;;;5069092;28;20045;-78
2023/03/09 15:19:30;;;;;;;0.70;0.70;;;3.40;99.90;;;;;;5045494;28;20052;-78
2023/03/09 15:22:00;;;;;;;0.70;0.70;;;3.40;99.90;;;;;;5047326;28;20405;-78
2023/03/09 15:24:29;;;;;;;0.70;0.70;;;3.30;99.90;;;;;;5062604;28;20048;-78
2023/03/09 15:26:56;;;;;;;0.70;0.70;;;3.20;99.90;;;;;;5058374;28;20055;-78
2023/03/09 15:29:22;;;;;;;0.65;0.65;;;3.20;99.90;;;;;;5037735;28;20483;-78
2023/03/09 15:31:48;;;;;;;0.70;0.70;;;3.20;99.90;;;;;;5058755;28;20043;-78
2023/03/09 15:34:14;;;;;;;0.70;0.70;;;3.00;99.90;;;;;;5058294;28;20040;-78
2023/03/09 15:36:39;;;;;;;0.70;0.70;;;3.20;99.90;;;;;;5040417;28;20079;-78
2023/03/09 15:39:07;;;;;;;0.70;0.70;;;3.20;99.90;;;;;;5050849;28;20136;-78
2023/03/09 15:41:33;;;;;;;0.70;0.70;;;3.20;99.90;;;;;;5056519;28;20055;-78
2023/03/09 15:43:58;;;;;;;0.70;0.70;;;3.10;99.90;;;;;;5058825;28;20311;-78
2023/03/09 15:46:27;;;;;;;0.70;0.70;;;3.10;99.90;;;;;;5057698;28;20086;-78
2023/03/09 15:48:53;;;;;;;0.70;0.70;;;3.10;99.90;;;;;;5057506;28;20040;-78
2023/03/09 15:51:20;;;;;;;0.70;0.70;;;2.80;99.90;;;;;;5057784;28;20037;-78
2023/03/09 15:53:46;;;;;;;0.70;0.70;;;2.80;99.90;;;;;;5059968;28;20048;-78
2023/03/09 15:56:14;;;;;;;0.80;0.80;;;3.00;99.90;;;;;;5060484;28;20039;-78
2023/03/09 15:58:39;;;;;;;0.70;0.70;;;2.90;99.90;;;;;;5059964;28;20080;-78
2023/03/09 16:01:23;;;;;;;0.70;0.70;;;3.10;99.90;;;;;;5053135;28;20167;-78
2023/03/09 16:03:51;;;;;;;0.80;0.80;;;2.90;99.90;;;;;;5056165;28;20048;-77
2023/03/09 16:06:19;;;;;;;0.70;0.70;;;2.90;99.90;;;;;;5056060;28;20049;-78
2023/03/09 16:08:45;;;;;;;0.80;0.80;;;3.10;99.90;;;;;;5054573;28;20417;-78
2023/03/09 16:11:11;;;;;;;0.70;0.70;;;2.90;99.90;;;;;;5042552;28;20047;-78
2023/03/09 16:13:38;;;;;;;0.70;0.70;;;2.90;99.90;;;;;;5055192;28;20047;-78
2023/03/09 16:16:05;;;;;;;0.70;0.70;;;2.90;99.90;;;;;;5040112;28;20830;-78
2023/03/09 16:18:31;;;;;;;0.70;0.70;;;2.90;99.90;;;;;;5042165;28;20055;-78
2023/03/09 16:21:00;;;;;;;0.70;0.70;;;2.60;99.90;;;;;;5046700;28;20085;-78
2023/03/09 16:23:26;;;;;;;0.70;0.70;;;2.70;99.90;;;;;;5051372;28;20055;-78
2023/03/09 16:25:53;;;;;;;0.70;0.70;;;2.60;99.90;;;;;;5044800;28;20036;-78
2023/03/09 16:28:20;;;;;;;0.77;0.77;;;2.60;99.90;;;;;;5034366;28;20058;-78
2023/03/09 16:30:46;;;;;;;0.70;0.70;;;2.60;99.90;;;;;;5045973;28;20564;-78
2023/03/09 16:33:12;;;;;;;0.80;0.80;;;2.80;99.90;;;;;;5070495;28;20052;-78